sensor_id;sensor_type;location;lat;lon;timestamp;temperature;humidity
6252;DHT22;3159;52.414;9.784;2023-06-10T00:01:44;19.60;99.90
6252;DHT22;3159;52.414;9.784;2023-06-10T00:04:14;19.40;99.90
6252;DHT22;3159;52.414;9.784;2023-06-10T00:06:42;19.20;99.90
6252;DHT22;3159;52.414;9.784;2023-06-10T00:09:10;19.00;99.90
6252;DHT22;3159;52.414;9.784;2023-06-10T00:11:37;19.00;99.90
6252;DHT22;3159;52.414;9.784;2023-06-10T00:14:05;18.80;99.90
6252;DHT22;3159;52.414;9.784;2023-06-10T00:16:31;19.00;99.90
6252;DHT22;3159;52.414;9.784;2023-06-10T00:19:00;19.20;99.90
6252;DHT22;3159;52.414;9.784;2023-06-10T00:21:30;19.30;99.90
6252;DHT22;3159;52.414;9.784;2023-06-10T00:24:03;19.30;99.90
6252;DHT22;3159;52.414;9.784;2023-06-10T00:26:30;19.10;99.90
6252;DHT22;3159;52.414;9.784;2023-06-10T00:28:57;18.70;99.90
6252;DHT22;3159;52.414;9.784;2023-06-10T00:31:24;18.70;99.90
6252;DHT22;3159;52.414;9.784;2023-06-10T00:33:52;18.90;99.90
6252;DHT22;3159;52.414;9.784;2023-06-10T00:36:19;19.00;99.90
6252;DHT22;3159;52.414;9.784;2023-06-10T00:38:47;18.90;99.90
6252;DHT22;3159;52.414;9.784;2023-06-10T00:41:14;19.00;99.90
6252;DHT22;3159;52.414;9.784;2023-06-10T00:43:41;18.90;99.90
6252;DHT22;3159;52.414;9.784;2023-06-10T00:46:08;19.00;99.90
6252;DHT22;3159;52.414;9.784;2023-06-10T00:48:34;19.10;99.90
6252;DHT22;3159;52.414;9.784;2023-06-10T00:51:01;19.30;99.90
6252;DHT22;3159;52.414;9.784;2023-06-10T00:53:28;19.30;99.90
6252;DHT22;3159;52.414;9.784;2023-06-10T00:55:57;19.40;99.90
6252;DHT22;3159;52.414;9.784;2023-06-10T00:58:24;19.30;99.90
6252;DHT22;3159;52.414;9.784;2023-06-10T01:00:51;19.20;99.90
6252;DHT22;3159;52.414;9.784;2023-06-10T01:03:19;19.30;99.90
6252;DHT22;3159;52.414;9.784;2023-06-10T01:05:52;19.30;99.90
6252;DHT22;3159;52.414;9.784;2023-06-10T01:08:28;19.30;99.90
6252;DHT22;3159;52.414;9.784;2023-06-10T01:11:00;19.30;99.90
6252;DHT22;3159;52.414;9.784;2023-06-10T01:13:29;19.40;99.90
6252;DHT22;3159;52.414;9.784;2023-06-10T01:15:57;19.50;99.90
6252;DHT22;3159;52.414;9.784;2023-06-10T01:18:30;19.40;99.90
6252;DHT22;3159;52.414;9.784;2023-06-10T01:20:57;19.20;99.90
6252;DHT22;3159;52.414;9.784;2023-06-10T01:23:25;18.80;99.90
6252;DHT22;3159;52.414;9.784;2023-06-10T01:25:58;18.90;99.90
6252;DHT22;3159;52.414;9.784;2023-06-10T01:28:31;18.90;99.90
6252;DHT22;3159;52.414;9.784;2023-06-10T01:31:03;18.90;99.90
6252;DHT22;3159;52.414;9.784;2023-06-10T01:33:35;18.90;99.90
6252;DHT22;3159;52.414;9.784;2023-06-10T01:36:03;18.80;99.90
6252;DHT22;3159;52.414;9.784;2023-06-10T01:38:40;18.80;99.90
6252;DHT22;3159;52.414;9.784;2023-06-10T01:41:09;18.90;99.90
6252;DHT22;3159;52.414;9.784;2023-06-10T01:43:38;18.80;99.90
6252;DHT22;3159;52.414;9.784;2023-06-10T01:46:05;18.90;99.90
6252;DHT22;3159;52.414;9.784;2023-06-10T01:48:32;19.00;99.90
6252;DHT22;3159;52.414;9.784;2023-06-10T01:50:59;19.00;99.90
6252;DHT22;3159;52.414;9.784;2023-06-10T01:53:26;19.00;99.90
6252;DHT22;3159;52.414;9.784;2023-06-10T01:55:54;19.00;99.90
6252;DHT22;3159;52.414;9.784;2023-06-10T01:58:21;18.90;99.90
6252;DHT22;3159;52.414;9.784;2023-06-10T02:00:48;18.90;99.90
6252;DHT22;3159;52.414;9.784;2023-06-10T02:03:15;19.00;99.90
6252;DHT22;3159;52.414;9.784;2023-06-10T02:05:42;19.00;99.90
6252;DHT22;3159;52.414;9.784;2023-06-10T02:08:09;18.90;99.90
6252;DHT22;3159;52.414;9.784;2023-06-10T02:10:36;18.70;99.90
6252;DHT22;3159;52.414;9.784;2023-06-10T02:13:04;18.00;99.90
6252;DHT22;3159;52.414;9.784;2023-06-10T02:15:31;18.10;99.90
6252;DHT22;3159;52.414;9.784;2023-06-10T02:17:59;18.10;99.90
6252;DHT22;3159;52.414;9.784;2023-06-10T02:20:26;18.00;99.90
6252;DHT22;3159;52.414;9.784;2023-06-10T02:22:52;17.90;99.90
6252;DHT22;3159;52.414;9.784;2023-06-10T02:25:19;17.90;99.90
6252;DHT22;3159;52.414;9.784;2023-06-10T02:27:46;17.80;99.90
6252;DHT22;3159;52.414;9.784;2023-06-10T02:30:14;17.10;99.90
6252;DHT22;3159;52.414;9.784;2023-06-10T02:32:41;17.10;99.90
6252;DHT22;3159;52.414;9.784;2023-06-10T02:35:12;16.90;99.90
6252;DHT22;3159;52.414;9.784;2023-06-10T02:37:39;17.10;99.90
6252;DHT22;3159;52.414;9.784;2023-06-10T02:40:07;16.90;99.90
6252;DHT22;3159;52.414;9.784;2023-06-10T02:42:35;17.10;99.90
6252;DHT22;3159;52.414;9.784;2023-06-10T02:45:02;16.60;99.90
6252;DHT22;3159;52.414;9.784;2023-06-10T02:47:31;16.70;99.90
6252;DHT22;3159;52.414;9.784;2023-06-10T02:49:58;17.00;99.90
6252;DHT22;3159;52.414;9.784;2023-06-10T02:52:24;17.10;99.90
6252;DHT22;3159;52.414;9.784;2023-06-10T02:54:51;17.20;99.90
6252;DHT22;3159;52.414;9.784;2023-06-10T02:57:18;17.20;99.90
6252;DHT22;3159;52.414;9.784;2023-06-10T02:59:45;17.30;99.90
6252;DHT22;3159;52.414;9.784;2023-06-10T03:02:12;17.20;99.90
6252;DHT22;3159;52.414;9.784;2023-06-10T03:04:40;17.40;99.90
6252;DHT22;3159;52.414;9.784;2023-06-10T03:07:09;17.30;99.90
6252;DHT22;3159;52.414;9.784;2023-06-10T03:09:36;17.40;99.90
6252;DHT22;3159;52.414;9.784;2023-06-10T03:12:04;17.20;99.90
6252;DHT22;3159;52.414;9.784;2023-06-10T03:14:31;17.10;99.90
6252;DHT22;3159;52.414;9.784;2023-06-10T03:16:58;16.80;99.90
6252;DHT22;3159;52.414;9.784;2023-06-10T03:19:25;16.80;99.90
6252;DHT22;3159;52.414;9.784;2023-06-10T03:22:07;16.90;99.90
6252;DHT22;3159;52.414;9.784;2023-06-10T03:24:34;17.00;99.90
6252;DHT22;3159;52.414;9.784;2023-06-10T03:27:01;17.00;99.90
6252;DHT22;3159;52.414;9.784;2023-06-10T03:29:30;16.80;99.90
6252;DHT22;3159;52.414;9.784;2023-06-10T03:31:57;16.80;99.90
6252;DHT22;3159;52.414;9.784;2023-06-10T03:34:24;16.90;99.90
6252;DHT22;3159;52.414;9.784;2023-06-10T03:36:51;17.20;99.90
6252;DHT22;3159;52.414;9.784;2023-06-10T03:39:19;17.20;99.90
6252;DHT22;3159;52.414;9.784;2023-06-10T03:41:46;17.20;99.90
6252;DHT22;3159;52.414;9.784;2023-06-10T03:44:13;17.30;99.90
6252;DHT22;3159;52.414;9.784;2023-06-10T03:46:40;17.10;99.90
6252;DHT22;3159;52.414;9.784;2023-06-10T03:49:07;17.10;99.90
6252;DHT22;3159;52.414;9.784;2023-06-10T03:51:35;17.20;99.90
6252;DHT22;3159;52.414;9.784;2023-06-10T03:54:02;17.20;99.90
6252;DHT22;3159;52.414;9.784;2023-06-10T03:56:31;17.30;99.90
6252;DHT22;3159;52.414;9.784;2023-06-10T03:58:58;17.20;99.90
6252;DHT22;3159;52.414;9.784;2023-06-10T04:01:25;17.10;99.90
6252;DHT22;3159;52.414;9.784;2023-06-10T04:03:53;17.10;99.90
6252;DHT22;3159;52.414;9.784;2023-06-10T04:06:20;17.20;99.90
6252;DHT22;3159;52.414;9.784;2023-06-10T04:08:50;17.30;99.90
6252;DHT22;3159;52.414;9.784;2023-06-10T04:11:17;17.10;99.90
6252;DHT22;3159;52.414;9.784;2023-06-10T04:13:45;17.20;99.90
6252;DHT22;3159;52.414;9.784;2023-06-10T04:16:12;17.30;99.90
6252;DHT22;3159;52.414;9.784;2023-06-10T04:18:39;17.00;99.90
6252;DHT22;3159;52.414;9.784;2023-06-10T04:21:07;16.00;99.90
6252;DHT22;3159;52.414;9.784;2023-06-10T04:23:35;16.00;99.90
6252;DHT22;3159;52.414;9.784;2023-06-10T04:26:02;15.70;99.90
6252;DHT22;3159;52.414;9.784;2023-06-10T04:28:29;15.90;99.90
6252;DHT22;3159;52.414;9.784;2023-06-10T04:30:57;16.20;99.90
6252;DHT22;3159;52.414;9.784;2023-06-10T04:33:24;16.50;99.90
6252;DHT22;3159;52.414;9.784;2023-06-10T04:35:51;16.50;99.90
6252;DHT22;3159;52.414;9.784;2023-06-10T04:38:17;16.40;99.90
6252;DHT22;3159;52.414;9.784;2023-06-10T04:40:44;16.30;99.90
6252;DHT22;3159;52.414;9.784;2023-06-10T04:43:11;16.50;99.90
6252;DHT22;3159;52.414;9.784;2023-06-10T04:45:38;16.50;99.90
6252;DHT22;3159;52.414;9.784;2023-06-10T04:48:07;16.50;99.90
6252;DHT22;3159;52.414;9.784;2023-06-10T04:50:34;16.50;99.90
6252;DHT22;3159;52.414;9.784;2023-06-10T04:53:00;16.20;99.90
6252;DHT22;3159;52.414;9.784;2023-06-10T04:55:27;16.20;99.90
6252;DHT22;3159;52.414;9.784;2023-06-10T04:57:54;16.50;99.90
6252;DHT22;3159;52.414;9.784;2023-06-10T05:00:21;16.60;99.90
6252;DHT22;3159;52.414;9.784;2023-06-10T05:02:48;16.80;99.90
6252;DHT22;3159;52.414;9.784;2023-06-10T05:05:18;16.40;99.90
6252;DHT22;3159;52.414;9.784;2023-06-10T05:07:45;16.30;99.90
6252;DHT22;3159;52.414;9.784;2023-06-10T05:10:11;16.30;99.90
6252;DHT22;3159;52.414;9.784;2023-06-10T05:12:38;16.70;99.90
6252;DHT22;3159;52.414;9.784;2023-06-10T05:15:06;16.90;99.90
6252;DHT22;3159;52.414;9.784;2023-06-10T05:17:33;16.90;99.90
6252;DHT22;3159;52.414;9.784;2023-06-10T05:20:00;16.90;99.90
6252;DHT22;3159;52.414;9.784;2023-06-10T05:22:28;17.10;99.90
6252;DHT22;3159;52.414;9.784;2023-06-10T05:24:55;17.10;99.90
6252;DHT22;3159;52.414;9.784;2023-06-10T05:27:22;16.00;99.90
6252;DHT22;3159;52.414;9.784;2023-06-10T05:29:49;16.40;99.90
6252;DHT22;3159;52.414;9.784;2023-06-10T05:32:17;16.60;99.90
6252;DHT22;3159;52.414;9.784;2023-06-10T05:34:44;16.60;99.90
6252;DHT22;3159;52.414;9.784;2023-06-10T05:37:10;16.80;99.90
6252;DHT22;3159;52.414;9.784;2023-06-10T05:39:38;17.00;99.90
6252;DHT22;3159;52.414;9.784;2023-06-10T05:42:07;17.00;99.90
6252;DHT22;3159;52.414;9.784;2023-06-10T05:44:34;17.00;99.90
6252;DHT22;3159;52.414;9.784;2023-06-10T05:47:00;17.20;99.90
6252;DHT22;3159;52.414;9.784;2023-06-10T05:49:27;17.30;99.90
6252;DHT22;3159;52.414;9.784;2023-06-10T05:51:54;17.50;99.90
6252;DHT22;3159;52.414;9.784;2023-06-10T05:54:21;17.50;99.90
6252;DHT22;3159;52.414;9.784;2023-06-10T05:56:49;17.60;99.90
6252;DHT22;3159;52.414;9.784;2023-06-10T05:59:16;17.50;99.90
6252;DHT22;3159;52.414;9.784;2023-06-10T06:01:43;17.60;99.90
6252;DHT22;3159;52.414;9.784;2023-06-10T06:04:10;17.60;99.90
6252;DHT22;3159;52.414;9.784;2023-06-10T06:06:38;17.50;99.90
6252;DHT22;3159;52.414;9.784;2023-06-10T06:09:05;17.30;99.90
6252;DHT22;3159;52.414;9.784;2023-06-10T06:11:34;17.30;99.90
6252;DHT22;3159;52.414;9.784;2023-06-10T06:14:02;17.20;99.90
6252;DHT22;3159;52.414;9.784;2023-06-10T06:16:29;17.50;99.90
6252;DHT22;3159;52.414;9.784;2023-06-10T06:18:56;17.30;99.90
6252;DHT22;3159;52.414;9.784;2023-06-10T06:21:22;16.80;99.90
6252;DHT22;3159;52.414;9.784;2023-06-10T06:23:49;16.90;99.90
6252;DHT22;3159;52.414;9.784;2023-06-10T06:26:16;17.10;99.90
6252;DHT22;3159;52.414;9.784;2023-06-10T06:28:43;17.30;99.90
6252;DHT22;3159;52.414;9.784;2023-06-10T06:31:11;17.40;99.90
6252;DHT22;3159;52.414;9.784;2023-06-10T06:33:38;17.40;99.90
6252;DHT22;3159;52.414;9.784;2023-06-10T06:36:05;17.20;99.90
6252;DHT22;3159;52.414;9.784;2023-06-10T06:38:32;17.60;99.90
6252;DHT22;3159;52.414;9.784;2023-06-10T06:40:59;17.50;99.90
6252;DHT22;3159;52.414;9.784;2023-06-10T06:43:28;17.90;99.90
6252;DHT22;3159;52.414;9.784;2023-06-10T06:45:56;18.00;99.90
6252;DHT22;3159;52.414;9.784;2023-06-10T06:48:24;18.10;99.90
6252;DHT22;3159;52.414;9.784;2023-06-10T06:50:51;17.80;99.90
6252;DHT22;3159;52.414;9.784;2023-06-10T06:53:18;18.00;99.90
6252;DHT22;3159;52.414;9.784;2023-06-10T06:55:45;17.50;99.90
6252;DHT22;3159;52.414;9.784;2023-06-10T06:58:12;18.00;99.90
6252;DHT22;3159;52.414;9.784;2023-06-10T07:00:38;18.40;99.90
6252;DHT22;3159;52.414;9.784;2023-06-10T07:03:05;18.60;99.90
6252;DHT22;3159;52.414;9.784;2023-06-10T07:05:33;18.80;99.90
6252;DHT22;3159;52.414;9.784;2023-06-10T07:08:00;18.80;99.90
6252;DHT22;3159;52.414;9.784;2023-06-10T07:10:28;19.10;99.90
6252;DHT22;3159;52.414;9.784;2023-06-10T07:12:54;19.20;99.90
6252;DHT22;3159;52.414;9.784;2023-06-10T07:15:21;19.40;99.90
6252;DHT22;3159;52.414;9.784;2023-06-10T07:17:49;19.30;99.90
6252;DHT22;3159;52.414;9.784;2023-06-10T07:20:16;19.20;99.90
6252;DHT22;3159;52.414;9.784;2023-06-10T07:22:44;18.70;99.90
6252;DHT22;3159;52.414;9.784;2023-06-10T07:25:11;19.30;99.90
6252;DHT22;3159;52.414;9.784;2023-06-10T07:27:38;19.60;99.90
6252;DHT22;3159;52.414;9.784;2023-06-10T07:30:06;20.00;99.90
6252;DHT22;3159;52.414;9.784;2023-06-10T07:32:33;20.20;99.90
6252;DHT22;3159;52.414;9.784;2023-06-10T07:35:00;20.30;99.90
6252;DHT22;3159;52.414;9.784;2023-06-10T07:37:27;20.40;99.90
6252;DHT22;3159;52.414;9.784;2023-06-10T07:39:56;20.60;99.90
6252;DHT22;3159;52.414;9.784;2023-06-10T07:42:23;20.90;99.90
6252;DHT22;3159;52.414;9.784;2023-06-10T07:44:50;20.50;99.90
6252;DHT22;3159;52.414;9.784;2023-06-10T07:47:16;20.60;99.90
6252;DHT22;3159;52.414;9.784;2023-06-10T07:49:43;21.10;99.90
6252;DHT22;3159;52.414;9.784;2023-06-10T07:52:10;21.30;99.90
6252;DHT22;3159;52.414;9.784;2023-06-10T07:54:37;21.50;99.90
6252;DHT22;3159;52.414;9.784;2023-06-10T07:57:06;21.80;99.90
6252;DHT22;3159;52.414;9.784;2023-06-10T07:59:33;21.80;99.90
6252;DHT22;3159;52.414;9.784;2023-06-10T08:02:00;22.20;99.90
6252;DHT22;3159;52.414;9.784;2023-06-10T08:04:27;22.40;99.90
6252;DHT22;3159;52.414;9.784;2023-06-10T08:06:53;22.50;99.90
6252;DHT22;3159;52.414;9.784;2023-06-10T08:09:20;20.90;99.90
6252;DHT22;3159;52.414;9.784;2023-06-10T08:11:48;21.20;99.90
6252;DHT22;3159;52.414;9.784;2023-06-10T08:14:17;21.00;99.90
6252;DHT22;3159;52.414;9.784;2023-06-10T08:16:44;20.90;99.90
6252;DHT22;3159;52.414;9.784;2023-06-10T08:19:11;21.40;99.90
6252;DHT22;3159;52.414;9.784;2023-06-10T08:21:38;22.30;99.90
6252;DHT22;3159;52.414;9.784;2023-06-10T08:24:05;22.60;99.90
6252;DHT22;3159;52.414;9.784;2023-06-10T08:26:32;23.00;99.90
6252;DHT22;3159;52.414;9.784;2023-06-10T08:28:59;22.80;99.90
6252;DHT22;3159;52.414;9.784;2023-06-10T08:31:27;23.30;99.90
6252;DHT22;3159;52.414;9.784;2023-06-10T08:33:54;23.60;99.90
6252;DHT22;3159;52.414;9.784;2023-06-10T08:36:21;23.80;99.90
6252;DHT22;3159;52.414;9.784;2023-06-10T08:38:48;24.00;99.90
6252;DHT22;3159;52.414;9.784;2023-06-10T08:41:17;23.80;99.90
6252;DHT22;3159;52.414;9.784;2023-06-10T08:43:48;24.50;99.90
6252;DHT22;3159;52.414;9.784;2023-06-10T08:46:20;24.70;99.90
6252;DHT22;3159;52.414;9.784;2023-06-10T08:48:49;24.30;99.90
6252;DHT22;3159;52.414;9.784;2023-06-10T08:51:18;24.80;99.90
6252;DHT22;3159;52.414;9.784;2023-06-10T08:53:50;25.00;99.90
6252;DHT22;3159;52.414;9.784;2023-06-10T08:56:20;24.70;99.90
6252;DHT22;3159;52.414;9.784;2023-06-10T08:58:48;24.60;99.90
6252;DHT22;3159;52.414;9.784;2023-06-10T09:01:15;25.00;99.90
6252;DHT22;3159;52.414;9.784;2023-06-10T09:03:42;25.40;99.90
6252;DHT22;3159;52.414;9.784;2023-06-10T09:06:10;25.70;99.90
6252;DHT22;3159;52.414;9.784;2023-06-10T09:08:37;25.50;99.90
6252;DHT22;3159;52.414;9.784;2023-06-10T09:11:05;25.40;99.90
6252;DHT22;3159;52.414;9.784;2023-06-10T09:13:32;25.60;99.90
6252;DHT22;3159;52.414;9.784;2023-06-10T09:15:59;26.20;99.90
6252;DHT22;3159;52.414;9.784;2023-06-10T09:18:28;26.30;99.90
6252;DHT22;3159;52.414;9.784;2023-06-10T09:20:55;26.40;99.90
6252;DHT22;3159;52.414;9.784;2023-06-10T09:23:23;25.50;99.90
6252;DHT22;3159;52.414;9.784;2023-06-10T09:25:56;26.10;99.90
6252;DHT22;3159;52.414;9.784;2023-06-10T09:28:24;26.30;99.90
6252;DHT22;3159;52.414;9.784;2023-06-10T09:31:02;26.30;99.90
6252;DHT22;3159;52.414;9.784;2023-06-10T09:33:29;25.20;99.90
6252;DHT22;3159;52.414;9.784;2023-06-10T09:35:55;24.90;99.90
6252;DHT22;3159;52.414;9.784;2023-06-10T09:38:30;26.00;99.90
6252;DHT22;3159;52.414;9.784;2023-06-10T09:40:57;27.00;99.90
6252;DHT22;3159;52.414;9.784;2023-06-10T09:43:38;27.60;99.90
6252;DHT22;3159;52.414;9.784;2023-06-10T09:46:05;27.40;99.90
6252;DHT22;3159;52.414;9.784;2023-06-10T09:48:35;26.00;99.90
6252;DHT22;3159;52.414;9.784;2023-06-10T09:51:02;26.40;99.90
6252;DHT22;3159;52.414;9.784;2023-06-10T09:53:36;27.20;99.90
6252;DHT22;3159;52.414;9.784;2023-06-10T09:56:03;27.70;99.90
6252;DHT22;3159;52.414;9.784;2023-06-10T09:58:37;27.60;99.90
6252;DHT22;3159;52.414;9.784;2023-06-10T10:01:09;27.00;99.90
6252;DHT22;3159;52.414;9.784;2023-06-10T10:03:44;26.60;99.90
6252;DHT22;3159;52.414;9.784;2023-06-10T10:06:12;26.50;99.90
6252;DHT22;3159;52.414;9.784;2023-06-10T10:08:40;27.00;99.90
6252;DHT22;3159;52.414;9.784;2023-06-10T10:11:07;27.40;99.90
6252;DHT22;3159;52.414;9.784;2023-06-10T10:13:34;28.20;99.90
6252;DHT22;3159;52.414;9.784;2023-06-10T10:16:04;28.00;99.90
6252;DHT22;3159;52.414;9.784;2023-06-10T10:18:34;28.70;99.90
6252;DHT22;3159;52.414;9.784;2023-06-10T10:21:05;29.00;99.90
6252;DHT22;3159;52.414;9.784;2023-06-10T10:23:39;28.90;99.90
6252;DHT22;3159;52.414;9.784;2023-06-10T10:26:10;29.10;99.90
6252;DHT22;3159;52.414;9.784;2023-06-10T10:28:42;29.00;99.90
6252;DHT22;3159;52.414;9.784;2023-06-10T10:31:12;27.10;99.90
6252;DHT22;3159;52.414;9.784;2023-06-10T10:33:45;27.80;99.90
6252;DHT22;3159;52.414;9.784;2023-06-10T10:36:15;28.90;99.90
6252;DHT22;3159;52.414;9.784;2023-06-10T10:38:46;28.40;99.90
6252;DHT22;3159;52.414;9.784;2023-06-10T10:41:15;28.70;99.90
6252;DHT22;3159;52.414;9.784;2023-06-10T10:43:43;29.00;99.90
6252;DHT22;3159;52.414;9.784;2023-06-10T10:46:13;29.70;99.90
6252;DHT22;3159;52.414;9.784;2023-06-10T10:48:40;29.70;99.90
6252;DHT22;3159;52.414;9.784;2023-06-10T10:51:08;29.80;99.90
6252;DHT22;3159;52.414;9.784;2023-06-10T10:53:37;28.10;99.90
6252;DHT22;3159;52.414;9.784;2023-06-10T10:56:07;27.10;99.90
6252;DHT22;3159;52.414;9.784;2023-06-10T10:58:34;27.60;99.90
6252;DHT22;3159;52.414;9.784;2023-06-10T11:01:10;27.90;99.90
6252;DHT22;3159;52.414;9.784;2023-06-10T11:03:42;27.40;99.90
6252;DHT22;3159;52.414;9.784;2023-06-10T11:06:12;28.10;99.90
6252;DHT22;3159;52.414;9.784;2023-06-10T11:08:46;29.10;99.90
6252;DHT22;3159;52.414;9.784;2023-06-10T11:11:24;29.60;99.90
6252;DHT22;3159;52.414;9.784;2023-06-10T11:14:15;30.10;99.90
6252;DHT22;3159;52.414;9.784;2023-06-10T11:16:52;30.00;99.90
6252;DHT22;3159;52.414;9.784;2023-06-10T11:19:34;29.00;99.90
6252;DHT22;3159;52.414;9.784;2023-06-10T11:22:02;28.90;99.90
6252;DHT22;3159;52.414;9.784;2023-06-10T11:24:30;29.80;99.90
6252;DHT22;3159;52.414;9.784;2023-06-10T11:27:15;28.90;99.90
6252;DHT22;3159;52.414;9.784;2023-06-10T11:29:58;28.40;99.90
6252;DHT22;3159;52.414;9.784;2023-06-10T11:32:29;29.40;99.90
6252;DHT22;3159;52.414;9.784;2023-06-10T11:34:56;28.60;99.90
6252;DHT22;3159;52.414;9.784;2023-06-10T11:37:23;28.40;99.90
6252;DHT22;3159;52.414;9.784;2023-06-10T11:39:52;28.10;99.90
6252;DHT22;3159;52.414;9.784;2023-06-10T11:42:21;28.40;99.90
6252;DHT22;3159;52.414;9.784;2023-06-10T11:44:49;28.00;99.90
6252;DHT22;3159;52.414;9.784;2023-06-10T11:47:16;28.30;99.90
6252;DHT22;3159;52.414;9.784;2023-06-10T11:49:43;28.90;99.90
6252;DHT22;3159;52.414;9.784;2023-06-10T11:52:10;29.80;99.90
6252;DHT22;3159;52.414;9.784;2023-06-10T11:54:37;30.30;99.90
6252;DHT22;3159;52.414;9.784;2023-06-10T11:57:04;29.00;99.90
6252;DHT22;3159;52.414;9.784;2023-06-10T11:59:34;29.50;99.90
6252;DHT22;3159;52.414;9.784;2023-06-10T12:02:02;30.20;99.90
6252;DHT22;3159;52.414;9.784;2023-06-10T12:04:28;29.70;99.90
6252;DHT22;3159;52.414;9.784;2023-06-10T12:06:55;30.50;99.90
6252;DHT22;3159;52.414;9.784;2023-06-10T12:09:24;30.60;99.90
6252;DHT22;3159;52.414;9.784;2023-06-10T12:11:52;30.10;99.90
6252;DHT22;3159;52.414;9.784;2023-06-10T12:14:52;30.00;99.90
6252;DHT22;3159;52.414;9.784;2023-06-10T12:17:23;29.80;99.90
6252;DHT22;3159;52.414;9.784;2023-06-10T12:19:50;30.70;99.90
6252;DHT22;3159;52.414;9.784;2023-06-10T12:22:16;30.30;99.90
6252;DHT22;3159;52.414;9.784;2023-06-10T12:24:45;29.60;99.90
6252;DHT22;3159;52.414;9.784;2023-06-10T12:27:12;30.60;99.90
6252;DHT22;3159;52.414;9.784;2023-06-10T12:29:39;31.10;99.90
6252;DHT22;3159;52.414;9.784;2023-06-10T12:32:08;31.30;99.90
6252;DHT22;3159;52.414;9.784;2023-06-10T12:34:37;31.60;99.90
6252;DHT22;3159;52.414;9.784;2023-06-10T12:37:06;31.20;99.90
6252;DHT22;3159;52.414;9.784;2023-06-10T12:39:33;31.20;99.90
6252;DHT22;3159;52.414;9.784;2023-06-10T12:42:01;31.10;99.90
6252;DHT22;3159;52.414;9.784;2023-06-10T12:44:38;31.40;99.90
6252;DHT22;3159;52.414;9.784;2023-06-10T12:47:10;31.60;99.90
6252;DHT22;3159;52.414;9.784;2023-06-10T12:49:38;30.40;99.90
6252;DHT22;3159;52.414;9.784;2023-06-10T12:52:06;31.20;99.90
6252;DHT22;3159;52.414;9.784;2023-06-10T12:54:33;31.00;99.90
6252;DHT22;3159;52.414;9.784;2023-06-10T12:57:00;29.80;99.90
6252;DHT22;3159;52.414;9.784;2023-06-10T12:59:27;30.60;99.90
6252;DHT22;3159;52.414;9.784;2023-06-10T13:01:54;30.50;99.90
6252;DHT22;3159;52.414;9.784;2023-06-10T13:04:23;30.30;99.90
6252;DHT22;3159;52.414;9.784;2023-06-10T13:06:49;29.60;99.90
6252;DHT22;3159;52.414;9.784;2023-06-10T13:09:16;29.10;99.90
6252;DHT22;3159;52.414;9.784;2023-06-10T13:11:44;29.50;99.90
6252;DHT22;3159;52.414;9.784;2023-06-10T13:14:11;30.00;99.90
6252;DHT22;3159;52.414;9.784;2023-06-10T13:16:38;29.90;99.90
6252;DHT22;3159;52.414;9.784;2023-06-10T13:19:05;30.40;99.90
6252;DHT22;3159;52.414;9.784;2023-06-10T13:21:34;30.60;99.90
6252;DHT22;3159;52.414;9.784;2023-06-10T13:24:01;30.60;99.90
6252;DHT22;3159;52.414;9.784;2023-06-10T13:26:28;31.00;99.90
6252;DHT22;3159;52.414;9.784;2023-06-10T13:28:55;31.00;99.90
6252;DHT22;3159;52.414;9.784;2023-06-10T13:31:22;30.80;99.90
6252;DHT22;3159;52.414;9.784;2023-06-10T13:33:49;30.50;99.90
6252;DHT22;3159;52.414;9.784;2023-06-10T13:36:16;30.90;99.90
6252;DHT22;3159;52.414;9.784;2023-06-10T13:38:44;30.40;99.90
6252;DHT22;3159;52.414;9.784;2023-06-10T13:41:11;31.00;99.90
6252;DHT22;3159;52.414;9.784;2023-06-10T13:43:38;30.80;99.90
6252;DHT22;3159;52.414;9.784;2023-06-10T13:46:05;29.80;99.90
6252;DHT22;3159;52.414;9.784;2023-06-10T13:48:32;29.50;99.90
6252;DHT22;3159;52.414;9.784;2023-06-10T13:50:58;29.60;99.90
6252;DHT22;3159;52.414;9.784;2023-06-10T13:53:26;29.60;99.90
6252;DHT22;3159;52.414;9.784;2023-06-10T13:55:54;30.00;99.90
6252;DHT22;3159;52.414;9.784;2023-06-10T13:58:21;29.70;99.90
6252;DHT22;3159;52.414;9.784;2023-06-10T14:00:47;30.30;99.90
6252;DHT22;3159;52.414;9.784;2023-06-10T14:03:14;29.80;99.90
6252;DHT22;3159;52.414;9.784;2023-06-10T14:05:41;29.80;99.90
6252;DHT22;3159;52.414;9.784;2023-06-10T14:08:08;29.40;99.90
6252;DHT22;3159;52.414;9.784;2023-06-10T14:10:35;29.80;99.90
6252;DHT22;3159;52.414;9.784;2023-06-10T14:13:03;29.70;99.90
6252;DHT22;3159;52.414;9.784;2023-06-10T14:15:30;30.20;99.90
6252;DHT22;3159;52.414;9.784;2023-06-10T14:17:58;30.50;99.90
6252;DHT22;3159;52.414;9.784;2023-06-10T14:20:24;29.10;99.90
6252;DHT22;3159;52.414;9.784;2023-06-10T14:22:52;29.40;99.90
6252;DHT22;3159;52.414;9.784;2023-06-10T14:25:19;29.40;99.90
6252;DHT22;3159;52.414;9.784;2023-06-10T14:27:46;29.20;99.90
6252;DHT22;3159;52.414;9.784;2023-06-10T14:30:14;29.50;99.90
6252;DHT22;3159;52.414;9.784;2023-06-10T14:32:41;29.70;99.90
6252;DHT22;3159;52.414;9.784;2023-06-10T14:35:08;29.80;99.90
6252;DHT22;3159;52.414;9.784;2023-06-10T14:37:35;29.70;99.90
6252;DHT22;3159;52.414;9.784;2023-06-10T14:40:03;29.20;99.90
6252;DHT22;3159;52.414;9.784;2023-06-10T14:42:30;29.00;99.90
6252;DHT22;3159;52.414;9.784;2023-06-10T14:44:57;28.80;99.90
6252;DHT22;3159;52.414;9.784;2023-06-10T14:47:25;29.20;99.90
6252;DHT22;3159;52.414;9.784;2023-06-10T14:49:52;28.70;99.90
6252;DHT22;3159;52.414;9.784;2023-06-10T14:52:19;29.30;99.90
6252;DHT22;3159;52.414;9.784;2023-06-10T14:54:46;29.30;99.90
6252;DHT22;3159;52.414;9.784;2023-06-10T14:57:12;29.60;99.90
6252;DHT22;3159;52.414;9.784;2023-06-10T14:59:40;29.70;99.90
6252;DHT22;3159;52.414;9.784;2023-06-10T15:02:06;29.30;99.90
6252;DHT22;3159;52.414;9.784;2023-06-10T15:04:35;29.10;99.90
6252;DHT22;3159;52.414;9.784;2023-06-10T15:07:01;28.90;99.90
6252;DHT22;3159;52.414;9.784;2023-06-10T15:09:28;29.00;99.90
6252;DHT22;3159;52.414;9.784;2023-06-10T15:11:55;29.50;99.90
6252;DHT22;3159;52.414;9.784;2023-06-10T15:14:22;29.10;99.90
6252;DHT22;3159;52.414;9.784;2023-06-10T15:16:49;29.40;99.90
6252;DHT22;3159;52.414;9.784;2023-06-10T15:19:15;29.40;99.90
6252;DHT22;3159;52.414;9.784;2023-06-10T15:21:44;29.40;99.90
6252;DHT22;3159;52.414;9.784;2023-06-10T15:24:10;29.50;99.90
6252;DHT22;3159;52.414;9.784;2023-06-10T15:26:37;29.80;99.90
6252;DHT22;3159;52.414;9.784;2023-06-10T15:29:04;30.00;99.90
6252;DHT22;3159;52.414;9.784;2023-06-10T15:31:31;29.50;99.90
6252;DHT22;3159;52.414;9.784;2023-06-10T15:33:58;29.50;99.90
6252;DHT22;3159;52.414;9.784;2023-06-10T15:36:25;29.80;99.90
6252;DHT22;3159;52.414;9.784;2023-06-10T15:38:54;30.10;99.90
6252;DHT22;3159;52.414;9.784;2023-06-10T15:41:26;29.60;99.90
6252;DHT22;3159;52.414;9.784;2023-06-10T15:43:53;28.90;99.90
6252;DHT22;3159;52.414;9.784;2023-06-10T15:46:20;29.20;99.90
6252;DHT22;3159;52.414;9.784;2023-06-10T15:48:46;29.10;99.90
6252;DHT22;3159;52.414;9.784;2023-06-10T15:51:13;29.20;99.90
6252;DHT22;3159;52.414;9.784;2023-06-10T15:53:40;29.10;99.90
6252;DHT22;3159;52.414;9.784;2023-06-10T15:56:08;28.70;99.90
6252;DHT22;3159;52.414;9.784;2023-06-10T15:58:35;28.50;99.90
6252;DHT22;3159;52.414;9.784;2023-06-10T16:01:02;28.80;99.90
6252;DHT22;3159;52.414;9.784;2023-06-10T16:03:29;28.70;99.90
6252;DHT22;3159;52.414;9.784;2023-06-10T16:05:56;28.70;99.90
6252;DHT22;3159;52.414;9.784;2023-06-10T16:08:22;28.90;99.90